createdAt,value
2019-04-20T00:00:39.956Z,76.10
2019-04-20T00:01:19.967Z,76.20
2019-04-20T00:01:48.528Z,76.00
2019-04-20T00:02:29.665Z,76.00
2019-04-20T00:03:03.564Z,76.70
2019-04-20T00:03:41.710Z,75.80
2019-04-20T00:04:19.413Z,75.90
2019-04-20T00:04:47.315Z,76.10
2019-04-20T00:05:21.201Z,76.10
2019-04-20T00:05:55.213Z,76.10
2019-04-20T00:06:31.730Z,76.20
2019-04-20T00:07:04.064Z,76.10
2019-04-20T00:07:37.680Z,75.90
2019-04-20T00:08:16.716Z,76.00
2019-04-20T00:08:47.482Z,76.10
2019-04-20T00:09:25.759Z,76.10
2019-04-20T00:10:04.512Z,76.20
2019-04-20T00:10:44.758Z,76.40
2019-04-20T00:11:15.634Z,76.70
2019-04-20T00:11:53.463Z,76.70
2019-04-20T00:12:25.252Z,76.90
2019-04-20T00:13:05.913Z,77.00
2019-04-20T00:13:38.417Z,76.80
2019-04-20T00:14:09.058Z,76.80
2019-04-20T00:14:38.801Z,76.90
2019-04-20T00:15:13.116Z,77.00
2019-04-20T00:15:47.237Z,77.10
2019-04-20T00:16:21.078Z,77.30
2019-04-20T00:16:54.836Z,77.40
2019-04-20T00:17:28.762Z,77.40
2019-04-20T00:18:06.286Z,77.50
2019-04-20T00:18:43.840Z,77.40
2019-04-20T00:19:15.343Z,77.40
2019-04-20T00:19:51.084Z,77.30
2019-04-20T00:20:29.008Z,77.20
2019-04-20T00:21:03.860Z,77.20
2019-04-20T00:21:52.663Z,77.30
2019-04-20T00:22:24.579Z,77.30
2019-04-20T00:22:59.764Z,77.20
2019-04-20T00:23:40.073Z,77.40
2019-04-20T00:24:33.885Z,77.50
2019-04-20T00:25:20.395Z,77.40
2019-04-20T00:26:17.327Z,77.40
2019-04-20T00:27:11.725Z,77.50
2019-04-20T00:27:43.305Z,77.40
2019-04-20T00:28:24.146Z,77.70
2019-04-20T00:29:00.195Z,78.00
2019-04-20T00:29:35.483Z,78.10
2019-04-20T00:30:06.741Z,78.30
2019-04-20T00:30:48.112Z,78.40
2019-04-20T00:31:19.031Z,78.60
2019-04-20T00:31:48.950Z,78.60
2019-04-20T00:32:23.217Z,78.70
2019-04-20T00:32:58.520Z,78.70
2019-04-20T00:33:37.334Z,78.90
2019-04-20T00:34:07.992Z,78.90
2019-04-20T00:34:38.480Z,78.90
2019-04-20T00:35:08.589Z,78.80
2019-04-20T00:35:42.158Z,78.70
2019-04-20T00:36:16.099Z,78.70
2019-04-20T00:36:49.872Z,78.90
2019-04-20T00:37:23.410Z,78.90
2019-04-20T00:37:57.117Z,79.00
2019-04-20T00:38:37.635Z,79.00
2019-04-20T00:39:10.870Z,79.10
2019-04-20T00:39:42.707Z,79.10
2019-04-20T00:40:17.117Z,79.20
2019-04-20T00:40:58.480Z,79.20
2019-04-20T00:41:25.891Z,79.30
2019-04-20T00:42:05.656Z,79.30
2019-04-20T00:42:42.222Z,79.40
2019-04-20T00:43:13.286Z,79.50
2019-04-20T00:43:45.599Z,79.70
2019-04-20T00:44:27.315Z,79.70
2019-04-20T00:45:03.350Z,79.90
2019-04-20T00:45:33.211Z,79.80
2019-04-20T00:46:09.172Z,79.80
2019-04-20T00:46:51.288Z,79.90
2019-04-20T00:47:30.997Z,79.80
2019-04-20T00:47:59.522Z,79.90
2019-04-20T00:48:40.444Z,80.10
2019-04-20T00:49:15.214Z,80.00
2019-04-20T00:49:50.943Z,79.90
2019-04-20T00:50:28.452Z,79.90
2019-04-20T00:50:59.314Z,80.10
2019-04-20T00:51:35.390Z,80.50
2019-04-20T00:52:23.774Z,80.60
2019-04-20T00:52:47.120Z,80.80
2019-04-20T00:53:19.427Z,80.80
2019-04-20T00:53:47.962Z,80.80
2019-04-20T00:54:16.303Z,80.70
2019-04-20T00:54:49.721Z,80.70
2019-04-20T00:55:23.240Z,80.60
2019-04-20T00:55:57.123Z,80.60
2019-04-20T00:56:31.006Z,80.70
2019-04-20T00:57:13.267Z,80.70
2019-04-20T00:57:47.698Z,80.80
2019-04-20T00:58:20.104Z,81.00
2019-04-20T00:59:03.057Z,81.00
2019-04-20T00:59:36.960Z,81.00
2019-04-20T01:00:17.582Z,80.80
2019-04-20T01:01:00.429Z,80.90
2019-04-20T01:01:33.038Z,80.80
2019-04-20T01:02:04.032Z,81.20
2019-04-20T01:02:33.295Z,80.70
2019-04-20T01:03:09.586Z,80.80
2019-04-20T01:03:43.236Z,80.90
2019-04-20T01:04:23.833Z,81.60
2019-04-20T01:04:58.572Z,81.30
2019-04-20T01:05:35.379Z,81.30
2019-04-20T01:06:20.644Z,81.30
2019-04-20T01:06:53.550Z,81.30
2019-04-20T01:07:31.165Z,81.30
2019-04-20T01:08:12.986Z,81.50
2019-04-20T01:08:48.486Z,81.50
2019-04-20T01:09:24.628Z,81.50
2019-04-20T01:10:13.190Z,81.60
2019-04-20T01:10:52.346Z,81.60
2019-04-20T01:11:30.102Z,81.50
2019-04-20T01:11:58.577Z,81.60
2019-04-20T01:12:35.005Z,81.60
2019-04-20T01:13:13.987Z,81.80
2019-04-20T01:13:50.481Z,81.80
2019-04-20T01:14:26.099Z,81.80
2019-04-20T01:14:58.528Z,81.80
2019-04-20T01:15:38.741Z,81.90
2019-04-20T01:16:09.409Z,82.10
2019-04-20T01:16:45.202Z,81.90
2019-04-20T01:17:13.443Z,81.90
2019-04-20T01:17:46.966Z,81.90
2019-04-20T01:18:20.402Z,81.90
2019-04-20T01:18:53.799Z,81.90
2019-04-20T01:19:27.220Z,82.00
2019-04-20T01:20:00.628Z,82.00
2019-04-20T01:20:34.065Z,82.10
2019-04-20T01:21:14.081Z,82.10
2019-04-20T01:21:49.826Z,82.00
2019-04-20T01:22:21.882Z,82.10
2019-04-20T01:23:00.196Z,82.20
2019-04-20T01:23:35.543Z,82.30
2019-04-20T01:24:06.293Z,82.20
2019-04-20T01:24:43.281Z,82.20
2019-04-20T01:25:18.132Z,82.30
2019-04-20T01:25:56.813Z,82.40
2019-04-20T01:26:24.889Z,82.40
2019-04-20T01:27:01.895Z,82.40
2019-04-20T01:27:50.162Z,82.30
2019-04-20T01:28:27.814Z,82.40
2019-04-20T01:28:54.185Z,82.20
2019-04-20T01:29:29.103Z,82.20
2019-04-20T01:30:05.889Z,82.30
2019-04-20T01:30:36.181Z,82.40
2019-04-20T01:31:15.694Z,82.40
2019-04-20T01:31:55.721Z,82.40
2019-04-20T01:32:23.364Z,82.30
2019-04-20T01:33:06.218Z,82.40
2019-04-20T01:33:37.302Z,82.40
2019-04-20T01:34:08.282Z,82.50
2019-04-20T01:34:47.461Z,82.60
2019-04-20T01:35:27.215Z,82.70
2019-04-20T01:36:00.152Z,82.80
2019-04-20T01:36:36.951Z,83.00
2019-04-20T01:37:09.286Z,82.90
2019-04-20T01:37:39.487Z,82.90
2019-04-20T01:38:22.465Z,83.00
2019-04-20T01:38:52.266Z,83.10
2019-04-20T01:39:23.978Z,83.20
2019-04-20T01:39:54.166Z,83.30
2019-04-20T01:40:25.426Z,83.40
2019-04-20T01:40:59.162Z,83.40
2019-04-20T01:41:32.981Z,83.40
2019-04-20T01:42:06.747Z,83.60
2019-04-20T01:42:40.377Z,83.70
2019-04-20T01:43:14.264Z,83.60
2019-04-20T01:43:48.105Z,83.50
2019-04-20T01:44:26.152Z,83.40
2019-04-20T01:44:57.374Z,83.40
2019-04-20T01:45:36.064Z,83.50
2019-04-20T01:46:13.324Z,83.70
2019-04-20T01:46:46.603Z,83.70
2019-04-20T01:47:17.160Z,83.70
2019-04-20T01:47:54.114Z,83.80
2019-04-20T01:48:30.517Z,83.80
2019-04-20T01:49:07.937Z,83.80
2019-04-20T01:49:37.433Z,84.10
2019-04-20T01:50:18.651Z,83.90
2019-04-20T01:50:55.013Z,83.80
2019-04-20T01:51:27.216Z,84.70
2019-04-20T01:52:09.697Z,84.00
2019-04-20T01:52:46.843Z,84.00
2019-04-20T01:53:18.983Z,84.10
2019-04-20T01:54:08.272Z,84.20
2019-04-20T01:54:38.719Z,84.30
2019-04-20T01:55:23.008Z,84.30
2019-04-20T01:55:58.647Z,84.40
2019-04-20T01:56:33.907Z,84.50
2019-04-20T01:57:01.714Z,84.50
2019-04-20T01:57:52.896Z,84.80
2019-04-20T01:58:55.300Z,84.80
2019-04-20T01:59:20.061Z,84.80
2019-04-20T01:59:52.271Z,84.70
2019-04-20T02:00:38.292Z,84.70
2019-04-20T02:01:17.795Z,84.90
2019-04-20T02:01:55.754Z,85.00
2019-04-20T02:02:28.208Z,85.00
2019-04-20T02:03:24.030Z,85.10
2019-04-20T02:03:58.529Z,85.10
2019-04-20T02:04:38.625Z,85.10
2019-04-20T02:05:17.057Z,85.30
2019-04-20T02:05:53.075Z,85.20
2019-04-20T02:06:23.875Z,85.10
2019-04-20T02:06:59.679Z,85.40
2019-04-20T02:07:39.800Z,85.60
2019-04-20T02:08:13.870Z,85.70
2019-04-20T02:08:42.169Z,85.70
2019-04-20T02:09:20.710Z,85.70
2019-04-20T02:09:56.850Z,85.70
2019-04-20T02:10:33.274Z,85.80
2019-04-20T02:11:04.347Z,85.70
2019-04-20T02:11:41.003Z,85.80
2019-04-20T02:12:18.230Z,85.90
2019-04-20T02:12:50.342Z,86.10
2019-04-20T02:13:21.557Z,86.00
2019-04-20T02:13:58.809Z,86.10
2019-04-20T02:14:38.801Z,86.20
2019-04-20T02:15:13.062Z,86.20
2019-04-20T02:15:47.990Z,86.20
2019-04-20T02:16:26.462Z,86.30
2019-04-20T02:17:02.993Z,86.20
2019-04-20T02:17:35.242Z,86.20
2019-04-20T02:18:15.008Z,86.20
2019-04-20T02:18:56.760Z,86.30
2019-04-20T02:19:28.992Z,86.20
2019-04-20T02:20:04.512Z,86.20
2019-04-20T02:20:40.159Z,86.40
2019-04-20T02:21:16.577Z,86.40
2019-04-20T02:21:47.705Z,86.40
2019-04-20T02:22:23.097Z,86.50
2019-04-20T02:22:56.927Z,86.50
2019-04-20T02:23:28.192Z,86.00
2019-04-20T02:23:57.767Z,86.60
2019-04-20T02:24:27.945Z,86.60
2019-04-20T02:25:01.756Z,86.60
2019-04-20T02:25:35.705Z,86.80
2019-04-20T02:26:09.336Z,87.60
2019-04-20T02:26:43.061Z,87.00
2019-04-20T02:27:20.602Z,87.10
2019-04-20T02:27:56.941Z,87.20
2019-04-20T02:28:56.863Z,87.20
2019-04-20T02:29:24.618Z,87.10
2019-04-20T02:29:58.219Z,87.10
2019-04-20T02:30:53.926Z,87.20
2019-04-20T02:31:25.152Z,87.40
2019-04-20T02:32:05.022Z,87.50
2019-04-20T02:33:16.755Z,87.70
2019-04-20T02:33:54.314Z,87.80
2019-04-20T02:34:39.905Z,87.80
2019-04-20T02:35:16.815Z,87.70
2019-04-20T02:36:01.521Z,87.60
2019-04-20T02:36:47.954Z,87.90
2019-04-20T02:39:05.885Z,88.00
2019-04-20T02:39:28.716Z,88.00
2019-04-20T02:40:38.985Z,88.20
2019-04-20T02:41:47.617Z,88.40
2019-04-20T02:42:17.865Z,88.60
2019-04-20T02:43:02.002Z,88.50
2019-04-20T02:43:41.938Z,88.60
2019-04-20T02:44:41.952Z,88.80
2019-04-20T02:45:20.451Z,88.80
2019-04-20T02:45:47.181Z,88.90
2019-04-20T02:46:28.502Z,88.90
2019-04-20T02:47:07.561Z,88.80
2019-04-20T02:47:40.336Z,88.90
2019-04-20T02:48:45.245Z,89.00
2019-04-20T02:49:35.954Z,88.90
2019-04-20T02:50:09.119Z,89.10
2019-04-20T02:50:30.158Z,89.40
2019-04-20T02:51:01.094Z,89.70
2019-04-20T02:51:40.947Z,89.40
2019-04-20T02:52:13.470Z,89.40
2019-04-20T02:53:43.325Z,89.40
2019-04-20T02:54:15.195Z,89.40
2019-04-20T02:54:28.495Z,89.50
2019-04-20T02:55:09.406Z,89.40
2019-04-20T02:55:53.537Z,89.40
2019-04-20T02:56:22.775Z,89.60
2019-04-20T02:56:57.440Z,89.70
2019-04-20T02:57:33.084Z,89.70
2019-04-20T02:58:05.140Z,89.70
2019-04-20T02:58:41.924Z,89.80
2019-04-20T02:59:44.638Z,89.70
2019-04-20T02:59:56.271Z,89.90
2019-04-20T03:00:25.456Z,90.00
2019-04-20T03:00:55.121Z,90.00
2019-04-20T03:01:29.455Z,90.00
2019-04-20T03:01:59.107Z,90.00
2019-04-20T03:02:31.282Z,90.00
2019-04-20T03:03:07.082Z,90.00
2019-04-20T03:03:35.959Z,90.10
2019-04-20T03:04:04.897Z,90.20
2019-04-20T03:04:45.239Z,90.20
2019-04-20T03:05:23.693Z,90.20
2019-04-20T03:06:06.161Z,90.20
2019-04-20T03:06:32.892Z,90.20
2019-04-20T03:07:12.793Z,90.30
2019-04-20T03:07:54.446Z,90.20
2019-04-20T03:08:22.342Z,90.30
2019-04-20T03:09:04.801Z,90.30
2019-04-20T03:09:36.756Z,90.30
2019-04-20T03:10:12.455Z,90.40
2019-04-20T03:10:52.475Z,90.40
2019-04-20T03:11:29.407Z,90.50
2019-04-20T03:13:01.346Z,90.60
2019-04-20T03:13:08.012Z,90.50
2019-04-20T03:13:41.950Z,90.50
2019-04-20T03:14:14.901Z,90.60
2019-04-20T03:14:47.790Z,90.70
2019-04-20T03:15:33.855Z,90.70
2019-04-20T03:16:08.786Z,90.70
2019-04-20T03:16:35.694Z,90.70
2019-04-20T03:17:17.729Z,90.80
2019-04-20T03:17:50.800Z,90.90
2019-04-20T03:18:27.751Z,90.90
2019-04-20T03:18:54.640Z,91.00
2019-04-20T03:19:29.973Z,90.90
2019-04-20T03:20:03.328Z,90.80
2019-04-20T03:20:47.808Z,90.80
2019-04-20T03:21:24.764Z,90.70
2019-04-20T03:21:58.301Z,90.70
2019-04-20T03:22:39.553Z,90.70
2019-04-20T03:23:26.124Z,90.70
2019-04-20T03:23:48.067Z,90.70
2019-04-20T03:24:20.513Z,90.60
2019-04-20T03:24:54.457Z,90.70
2019-04-20T03:25:53.465Z,90.60
2019-04-20T03:26:21.165Z,90.60
2019-04-20T03:26:56.625Z,90.60
2019-04-20T03:27:30.601Z,91.00
2019-04-20T03:28:10.814Z,90.70
2019-04-20T03:28:42.901Z,90.70
2019-04-20T03:29:24.545Z,90.80
2019-04-20T03:30:22.856Z,90.90
2019-04-20T03:31:41.637Z,90.90
2019-04-20T03:32:25.254Z,90.90
2019-04-20T03:33:09.591Z,91.00
2019-04-20T03:34:13.282Z,91.20
2019-04-20T03:35:05.175Z,91.20
2019-04-20T03:35:35.447Z,91.30
2019-04-20T03:36:19.868Z,91.30
2019-04-20T03:36:55.061Z,91.30
2019-04-20T03:37:28.014Z,91.40
2019-04-20T03:38:01.326Z,91.30
2019-04-20T03:38:29.907Z,91.40
2019-04-20T03:39:05.451Z,91.30
2019-04-20T03:39:36.158Z,91.30
2019-04-20T03:40:11.250Z,91.20
2019-04-20T03:40:45.384Z,91.20
2019-04-20T03:41:16.205Z,91.20
2019-04-20T03:41:46.338Z,91.20
2019-04-20T03:42:15.918Z,91.20
2019-04-20T03:42:50.624Z,91.30
2019-04-20T03:43:24.907Z,91.30
2019-04-20T03:44:03.168Z,91.30
2019-04-20T03:44:35.847Z,91.20
2019-04-20T03:45:13.174Z,91.20
2019-04-20T03:45:51.831Z,91.30
2019-04-20T03:46:25.772Z,91.30
2019-04-20T03:46:59.669Z,91.30
2019-04-20T03:47:40.353Z,91.30
2019-04-20T03:48:16.124Z,91.30
2019-04-20T03:48:54.853Z,91.30
2019-04-20T03:49:40.896Z,91.40
2019-04-20T03:50:10.521Z,91.40
2019-04-20T03:50:46.790Z,91.30
2019-04-20T03:51:26.899Z,91.30
2019-04-20T03:51:58.777Z,91.60
2019-04-20T03:52:36.549Z,91.40
2019-04-20T03:53:19.570Z,91.40
2019-04-20T03:54:11.659Z,91.40
2019-04-20T03:54:55.355Z,91.40
2019-04-20T03:55:50.165Z,91.30
2019-04-20T03:56:34.409Z,91.30
2019-04-20T03:57:17.010Z,91.50
2019-04-20T03:57:51.467Z,91.50
2019-04-20T03:58:24.264Z,91.40
2019-04-20T03:59:04.668Z,91.50
2019-04-20T03:59:51.130Z,91.50
2019-04-20T04:00:39.678Z,91.70
2019-04-20T04:01:19.838Z,91.70
2019-04-20T04:02:17.367Z,91.70
2019-04-20T04:02:52.788Z,91.90
2019-04-20T04:03:37.953Z,91.60
2019-04-20T04:04:05.359Z,91.60
2019-04-20T04:04:54.797Z,91.60
2019-04-20T04:05:31.054Z,91.60
2019-04-20T04:06:15.906Z,91.50
2019-04-20T04:06:47.062Z,91.60
2019-04-20T04:07:26.873Z,91.60
2019-04-20T04:08:02.980Z,91.60
2019-04-20T04:08:34.469Z,91.60
2019-04-20T04:09:13.622Z,91.70
2019-04-20T04:09:53.767Z,91.70
2019-04-20T04:10:27.314Z,91.80
2019-04-20T04:11:04.801Z,91.80
2019-04-20T04:11:38.115Z,91.80
2019-04-20T04:12:25.378Z,91.80
2019-04-20T04:13:11.775Z,91.90
2019-04-20T04:13:45.979Z,91.80
2019-04-20T04:14:19.857Z,91.70
2019-04-20T04:14:53.681Z,91.70
2019-04-20T04:15:27.551Z,91.70
2019-04-20T04:16:04.901Z,91.70
2019-04-20T04:16:42.924Z,91.70
2019-04-20T04:17:15.251Z,91.80
2019-04-20T04:17:47.981Z,91.80
2019-04-20T04:18:29.140Z,91.80
2019-04-20T04:19:07.542Z,91.80
2019-04-20T04:19:35.162Z,91.80
2019-04-20T04:20:12.769Z,91.70
2019-04-20T04:20:47.613Z,91.70
2019-04-20T04:21:27.080Z,91.70
2019-04-20T04:22:03.964Z,91.70
2019-04-20T04:22:43.769Z,91.70
2019-04-20T04:23:19.078Z,91.60
2019-04-20T04:23:56.071Z,91.60
2019-04-20T04:24:23.536Z,91.60
2019-04-20T04:25:03.714Z,91.60
2019-04-20T04:25:32.521Z,91.60
2019-04-20T04:26:15.055Z,91.60
2019-04-20T04:26:47.422Z,91.60
2019-04-20T04:27:28.540Z,91.50
2019-04-20T04:28:03.857Z,91.50
2019-04-20T04:28:35.255Z,91.50
2019-04-20T04:29:13.568Z,91.50
2019-04-20T04:29:47.066Z,91.50
2019-04-20T04:30:19.205Z,91.40
2019-04-20T04:31:00.033Z,91.40
2019-04-20T04:31:33.174Z,91.40
2019-04-20T04:32:15.780Z,91.40
2019-04-20T04:33:10.534Z,91.70
2019-04-20T04:33:44.501Z,91.40
2019-04-20T04:34:12.497Z,91.30
2019-04-20T04:34:28.783Z,91.30
2019-04-20T04:35:01.664Z,91.30
2019-04-20T04:35:30.204Z,91.30
2019-04-20T04:36:10.434Z,91.20
2019-04-20T04:36:50.740Z,91.10
2019-04-20T04:37:26.677Z,91.00
2019-04-20T04:37:58.840Z,91.00
2019-04-20T04:38:37.425Z,90.90
2019-04-20T04:39:26.314Z,90.90
2019-04-20T04:39:46.953Z,91.00
2019-04-20T04:40:25.326Z,91.00
2019-04-20T04:41:01.880Z,91.00
2019-04-20T04:41:27.049Z,91.00
2019-04-20T04:42:10.224Z,91.00
2019-04-20T04:42:42.668Z,90.90
2019-04-20T04:43:16.056Z,90.90
2019-04-20T04:43:51.080Z,90.90
2019-04-20T04:44:20.207Z,90.80
2019-04-20T04:44:50.611Z,91.10
2019-04-20T04:45:18.895Z,90.80
2019-04-20T04:45:51.405Z,90.70
2019-04-20T04:46:25.114Z,90.60
2019-04-20T04:47:02.789Z,90.50
2019-04-20T04:47:34.594Z,90.50
2019-04-20T04:48:14.734Z,90.40
2019-04-20T04:48:46.591Z,90.40
2019-04-20T04:49:26.691Z,90.30
2019-04-20T04:50:02.415Z,90.60
2019-04-20T04:50:31.477Z,90.20
2019-04-20T04:51:13.151Z,90.20
2019-04-20T04:51:49.195Z,90.20
2019-04-20T04:52:19.154Z,90.20
2019-04-20T04:52:58.797Z,90.20
2019-04-20T04:53:36.718Z,90.00
2019-04-20T04:54:10.197Z,90.00
2019-04-20T04:54:44.491Z,90.00
2019-04-20T04:55:22.175Z,90.40
2019-04-20T04:55:53.825Z,89.90
2019-04-20T04:56:23.141Z,89.80
2019-04-20T04:56:54.869Z,89.80
2019-04-20T04:57:28.564Z,89.70
2019-04-20T04:58:02.347Z,89.80
2019-04-20T04:58:36.286Z,89.80
2019-04-20T04:59:10.689Z,89.70
2019-04-20T04:59:44.583Z,89.60
2019-04-20T05:00:25.519Z,89.60
2019-04-20T05:01:01.341Z,89.60
2019-04-20T05:01:30.933Z,89.80
2019-04-20T05:02:03.538Z,89.80
2019-04-20T05:02:43.287Z,90.00
2019-04-20T05:03:26.712Z,89.80
2019-04-20T05:04:14.760Z,89.60
2019-04-20T05:04:49.848Z,89.60
2019-04-20T05:05:35.810Z,89.50
2019-04-20T05:06:20.890Z,89.40
2019-04-20T05:06:56.947Z,89.40
2019-04-20T05:07:26.700Z,89.20
2019-04-20T05:07:59.462Z,88.90
2019-04-20T05:08:33.819Z,88.80
2019-04-20T05:09:02.343Z,88.60
2019-04-20T05:09:34.241Z,88.60
2019-04-20T05:10:07.903Z,88.40
2019-04-20T05:10:41.640Z,88.30
2019-04-20T05:11:15.321Z,88.30
2019-04-20T05:11:56.101Z,88.20
2019-04-20T05:12:28.857Z,87.90
2019-04-20T05:13:01.145Z,87.90
2019-04-20T05:13:43.922Z,87.90
2019-04-20T05:14:17.016Z,87.80
2019-04-20T05:17:45.238Z,86.60
2019-04-20T05:18:20.550Z,86.80
2019-04-20T05:18:59.180Z,86.60
2019-04-20T05:19:29.847Z,86.30
2019-04-20T05:20:07.784Z,86.00
2019-04-20T05:20:41.720Z,84.70
2019-04-20T05:21:17.625Z,83.50
2019-04-20T05:22:01.164Z,82.20
2019-04-20T05:22:32.109Z,81.90
2019-04-20T05:23:21.097Z,82.10
2019-04-20T05:24:00.652Z,82.00
2019-04-20T05:24:33.817Z,81.60
2019-04-20T05:25:22.595Z,81.20
2019-04-20T05:26:01.886Z,80.90
2019-04-20T05:26:46.715Z,80.80
2019-04-20T05:27:56.349Z,79.30
2019-04-20T05:28:27.889Z,79.10
2019-04-20T05:29:02.535Z,78.50
2019-04-20T05:29:31.918Z,77.70
2019-04-20T05:30:03.633Z,77.00
2019-04-20T05:30:42.895Z,75.60
2019-04-20T05:31:15.004Z,74.80
2019-04-20T05:31:57.169Z,74.20
2019-04-20T05:32:35.831Z,74.30
2019-04-20T05:33:06.056Z,74.00
2019-04-20T05:34:03.639Z,73.70
2019-04-20T05:34:30.917Z,73.50
2019-04-20T05:35:10.930Z,73.60
2019-04-20T05:35:36.491Z,72.60
2019-04-20T05:36:13.878Z,72.80
2019-04-20T05:36:49.383Z,72.80
2019-04-20T05:37:33.268Z,71.20
2019-04-20T05:38:08.107Z,70.50
2019-04-20T05:38:43.198Z,69.70
2019-04-20T05:39:14.473Z,69.70
2019-04-20T05:39:44.459Z,69.80
2019-04-20T05:40:22.633Z,69.30
2019-04-20T05:40:59.947Z,69.40
2019-04-20T05:41:26.796Z,69.20
2019-04-20T05:42:03.387Z,69.50
2019-04-20T05:42:42.939Z,69.00
2019-04-20T05:43:33.118Z,68.70
2019-04-20T05:44:08.510Z,69.10
2019-04-20T05:44:49.922Z,68.90
2019-04-20T05:45:23.548Z,68.80
2019-04-20T05:45:51.592Z,68.70
2019-04-20T05:46:32.180Z,68.70
2019-04-20T05:47:15.834Z,68.50
2019-04-20T05:47:43.053Z,68.00
2019-04-20T05:48:16.473Z,67.40
2019-04-20T05:49:00.795Z,67.70
2019-04-20T05:49:31.738Z,67.40
2019-04-20T05:49:57.010Z,67.20
2019-04-20T05:50:36.486Z,67.10
2019-04-20T05:51:21.553Z,67.20
2019-04-20T05:51:47.628Z,67.10
2019-04-20T05:53:01.694Z,66.70
2019-04-20T05:53:38.466Z,66.80
2019-04-20T05:54:15.576Z,67.00
2019-04-20T05:54:44.674Z,67.00
2019-04-20T05:55:20.917Z,66.70
2019-04-20T05:55:55.458Z,66.60
2019-04-20T05:56:35.483Z,66.40
2019-04-20T05:57:15.592Z,66.00
2019-04-20T05:57:49.057Z,65.10
2019-04-20T05:58:16.463Z,65.10
2019-04-20T05:58:53.836Z,64.60
2019-04-20T05:59:19.173Z,64.80
2019-04-20T06:00:08.348Z,64.60
2019-04-20T06:00:40.606Z,64.40
2019-04-20T06:01:13.565Z,64.20
2019-04-20T06:01:53.291Z,63.90
2019-04-20T06:02:26.264Z,63.90
2019-04-20T06:02:53.958Z,64.90
2019-04-20T06:03:28.983Z,64.00
2019-04-20T06:04:03.001Z,63.50
2019-04-20T06:04:58.784Z,63.00
2019-04-20T06:05:16.010Z,63.70
2019-04-20T06:06:00.895Z,62.40
2019-04-20T06:06:27.619Z,62.00
2019-04-20T06:06:59.609Z,62.00
2019-04-20T06:07:35.968Z,62.60
2019-04-20T06:08:25.011Z,62.80
2019-04-20T06:08:56.641Z,62.60
2019-04-20T06:09:39.675Z,62.40
2019-04-20T06:10:00.247Z,63.40
2019-04-20T06:10:38.350Z,62.00
2019-04-20T06:11:07.971Z,61.60
2019-04-20T06:12:01.374Z,61.20
2019-04-20T06:12:19.957Z,61.10
2019-04-20T06:12:53.150Z,60.80
2019-04-20T06:13:22.910Z,60.60
2019-04-20T06:14:12.587Z,60.80
2019-04-20T06:15:00.163Z,60.50
2019-04-20T06:15:51.344Z,60.10
2019-04-20T06:16:33.535Z,60.20
2019-04-20T06:17:11.214Z,60.30
2019-04-20T06:18:03.891Z,60.50
2019-04-20T06:18:58.217Z,60.20
2019-04-20T06:19:36.959Z,59.50
2019-04-20T06:20:05.237Z,59.20
2019-04-20T06:20:41.255Z,59.40
2019-04-20T06:21:27.748Z,59.70
2019-04-20T06:21:57.705Z,59.70
2019-04-20T06:22:42.776Z,59.20
2019-04-20T06:23:42.297Z,58.90
2019-04-20T06:24:17.164Z,58.60
2019-04-20T06:25:14.517Z,58.30
2019-04-20T06:25:54.856Z,58.50
2019-04-20T06:26:59.488Z,58.20
2019-04-20T06:27:35.267Z,58.20
2019-04-20T06:28:06.575Z,58.30
2019-04-20T06:28:40.060Z,58.60
2019-04-20T06:29:16.981Z,58.00
2019-04-20T06:29:54.420Z,57.30
2019-04-20T06:30:25.233Z,57.70
2019-04-20T06:30:56.827Z,57.50
2019-04-20T06:31:37.033Z,56.50
2019-04-20T06:32:23.362Z,56.50
2019-04-20T06:34:27.983Z,56.70
2019-04-20T06:34:46.485Z,56.90
2019-04-20T06:35:44.601Z,56.50
2019-04-20T06:36:38.590Z,56.20
2019-04-20T06:37:02.860Z,56.20
2019-04-20T06:37:53.774Z,55.80
2019-04-20T06:38:46.848Z,55.70
2019-04-20T06:40:29.563Z,55.30
2019-04-20T06:40:55.237Z,55.60
2019-04-20T06:41:31.794Z,55.50
2019-04-20T06:42:23.455Z,54.90
2019-04-20T06:43:05.216Z,54.60
2019-04-20T06:43:48.853Z,54.50
2019-04-20T06:44:24.836Z,54.80
2019-04-20T06:44:48.388Z,54.90
2019-04-20T06:45:36.356Z,54.70
2019-04-20T06:46:09.813Z,54.70
2019-04-20T06:46:43.177Z,54.80
2019-04-20T06:47:15.479Z,54.50
2019-04-20T06:47:51.820Z,53.90
2019-04-20T06:48:29.390Z,54.10
2019-04-20T06:49:05.662Z,54.10
2019-04-20T06:49:35.540Z,54.00
2019-04-20T06:50:07.161Z,53.80
2019-04-20T06:50:44.257Z,53.80
2019-04-20T06:51:27.669Z,53.60
2019-04-20T06:52:10.116Z,53.90
2019-04-20T06:53:01.554Z,54.00
2019-04-20T06:53:43.627Z,53.90
2019-04-20T06:54:20.024Z,54.00
2019-04-20T06:55:07.065Z,53.80
2019-04-20T06:55:52.938Z,53.90
2019-04-20T06:56:27.600Z,53.80
2019-04-20T06:56:59.721Z,54.30
2019-04-20T06:57:49.902Z,54.30
2019-04-20T06:58:27.759Z,54.20
2019-04-20T06:58:53.764Z,54.20
2019-04-20T06:59:27.710Z,54.00
2019-04-20T07:00:01.016Z,53.90
2019-04-20T07:00:36.864Z,53.40
2019-04-20T07:01:09.318Z,53.10
2019-04-20T07:01:48.477Z,53.10
2019-04-20T07:02:28.388Z,53.20
2019-04-20T07:03:05.816Z,53.40
2019-04-20T07:03:42.276Z,53.30
2019-04-20T07:05:26.974Z,52.90
2019-04-20T07:06:01.911Z,53.00
2019-04-20T07:06:43.924Z,53.40
2019-04-20T07:07:02.382Z,53.50
2019-04-20T07:07:32.193Z,53.00
2019-04-20T07:08:28.864Z,53.00
2019-04-20T07:09:23.485Z,52.80
2019-04-20T07:10:08.815Z,52.90
2019-04-20T07:10:34.687Z,52.80
2019-04-20T07:11:11.186Z,52.30
2019-04-20T07:11:44.364Z,52.30
2019-04-20T07:12:13.111Z,52.40
2019-04-20T07:12:46.649Z,52.20
2019-04-20T07:13:19.310Z,52.10
2019-04-20T07:13:50.541Z,52.20
2019-04-20T07:14:31.890Z,52.30
2019-04-20T07:15:01.353Z,52.40
2019-04-20T07:15:47.450Z,52.00
2019-04-20T07:16:30.541Z,52.20
2019-04-20T07:17:10.851Z,52.50
2019-04-20T07:17:55.119Z,52.60
2019-04-20T07:18:31.382Z,52.30
2019-04-20T07:19:17.557Z,52.00
2019-04-20T07:19:44.437Z,51.90
2019-04-20T07:20:39.696Z,51.90
2019-04-20T07:21:12.645Z,51.80
2019-04-20T07:22:01.929Z,51.50
2019-04-20T07:22:33.681Z,51.50
2019-04-20T07:23:20.210Z,50.90
2019-04-20T07:23:43.703Z,50.70
2019-04-20T07:24:20.970Z,51.00
2019-04-20T07:25:32.069Z,51.00
2019-04-20T07:26:12.812Z,50.70
2019-04-20T07:26:41.666Z,50.60
2019-04-20T07:27:17.005Z,50.80
2019-04-20T07:27:48.995Z,51.10
2019-04-20T07:28:27.766Z,51.30
2019-04-20T07:28:59.005Z,50.70
2019-04-20T07:29:35.220Z,50.50
2019-04-20T07:30:10.715Z,50.30
2019-04-20T07:30:45.123Z,50.00
2019-04-20T07:31:19.069Z,49.70
2019-04-20T07:31:48.765Z,49.70
2019-04-20T07:32:26.009Z,49.80
2019-04-20T07:33:10.458Z,49.60
2019-04-20T07:33:39.406Z,49.40
2019-04-20T07:34:15.741Z,49.20
2019-04-20T07:34:51.281Z,49.30
2019-04-20T07:35:24.770Z,49.40
2019-04-20T07:35:56.248Z,49.60
2019-04-20T07:36:40.532Z,50.00
2019-04-20T07:37:45.075Z,50.00
2019-04-20T07:38:15.354Z,49.90
2019-04-20T07:38:44.646Z,49.80
2019-04-20T07:39:03.979Z,49.30
2019-04-20T07:39:33.166Z,49.20
2019-04-20T07:40:13.539Z,49.50
2019-04-20T07:40:42.859Z,49.60
2019-04-20T07:41:28.216Z,49.10
2019-04-20T07:42:00.649Z,49.10
2019-04-20T07:42:36.239Z,49.10
2019-04-20T07:43:04.705Z,49.10
2019-04-20T07:43:57.508Z,49.10
2019-04-20T07:44:20.017Z,49.10
2019-04-20T07:44:56.235Z,48.90
2019-04-20T07:46:04.319Z,48.80
2019-04-20T07:46:52.486Z,48.60
2019-04-20T07:47:13.723Z,48.60
2019-04-20T07:48:07.798Z,48.50
2019-04-20T07:48:21.002Z,48.60
2019-04-20T07:49:01.413Z,48.80
2019-04-20T07:49:29.258Z,48.90
2019-04-20T07:50:04.956Z,49.30
2019-04-20T07:50:37.578Z,50.10
2019-04-20T07:51:06.890Z,49.30
2019-04-20T07:51:37.518Z,49.20
2019-04-20T07:52:08.150Z,48.50
2019-04-20T07:52:51.454Z,48.70
2019-04-20T07:53:35.281Z,48.50
2019-04-20T07:54:23.311Z,48.30
2019-04-20T07:55:03.594Z,48.70
2019-04-20T07:55:44.277Z,48.30
2019-04-20T07:55:58.146Z,48.50
2019-04-20T07:56:37.540Z,48.40
2019-04-20T07:57:09.986Z,48.30
2019-04-20T07:57:39.206Z,48.30
2019-04-20T07:58:12.204Z,48.30
2019-04-20T07:58:44.228Z,48.20
2019-04-20T07:59:22.433Z,48.10
2019-04-20T08:00:08.119Z,47.70
2019-04-20T08:00:50.472Z,48.20
2019-04-20T08:01:31.685Z,48.40
2019-04-20T08:02:26.805Z,48.00
2019-04-20T08:03:18.546Z,47.80
2019-04-20T08:03:55.727Z,47.00
2019-04-20T08:04:33.500Z,47.10
2019-04-20T08:05:04.416Z,47.20
2019-04-20T08:05:40.642Z,47.20